createdAt,value
2019-02-17T00:00:25.491Z,40.28
2019-02-17T00:02:53.897Z,37.55
2019-02-17T00:05:22.758Z,35.85
2019-02-17T00:07:51.153Z,35.70
2019-02-17T00:10:19.549Z,34.88
2019-02-17T00:12:47.948Z,33.18
2019-02-17T00:15:16.891Z,34.75
2019-02-17T00:17:45.280Z,30.75
2019-02-17T00:20:13.671Z,34.48
2019-02-17T00:22:42.054Z,37.17
2019-02-17T00:25:10.441Z,38.05
2019-02-17T00:27:38.836Z,33.00
2019-02-17T00:30:10.141Z,33.38
2019-02-17T00:32:38.661Z,34.83
2019-02-17T00:35:08.780Z,33.53
2019-02-17T00:37:37.249Z,35.38
2019-02-17T00:40:07.171Z,34.38
2019-02-17T00:42:36.036Z,37.20
2019-02-17T00:45:05.355Z,34.50
2019-02-17T00:47:33.989Z,34.80
2019-02-17T00:50:02.386Z,38.48
2019-02-17T00:52:30.763Z,37.40
2019-02-17T00:54:59.164Z,33.70
2019-02-17T00:57:27.541Z,33.85
2019-02-17T00:59:55.935Z,33.60
2019-02-17T01:02:24.376Z,31.52
2019-02-17T01:04:52.789Z,37.05
2019-02-17T01:07:21.176Z,33.63
2019-02-17T01:09:49.565Z,32.80
2019-02-17T01:12:17.941Z,32.93
2019-02-17T01:14:46.336Z,41.98
2019-02-17T01:17:14.721Z,38.83
2019-02-17T01:19:43.124Z,37.08
2019-02-17T01:22:11.496Z,37.15
2019-02-17T01:24:39.888Z,36.05
2019-02-17T01:27:08.268Z,37.08
2019-02-17T01:29:36.664Z,34.43
2019-02-17T01:32:05.046Z,36.65
2019-02-17T01:34:33.432Z,38.83
2019-02-17T01:37:01.825Z,39.80
2019-02-17T01:39:30.268Z,31.20
2019-02-17T01:41:58.648Z,34.00
2019-02-17T01:44:27.040Z,36.90
2019-02-17T01:46:55.426Z,38.95
2019-02-17T01:49:23.812Z,37.75
2019-02-17T01:51:52.193Z,36.50
2019-02-17T01:54:20.579Z,38.67
2019-02-17T01:56:48.964Z,35.92
2019-02-17T01:59:17.353Z,43.20
2019-02-17T02:01:45.731Z,39.25
2019-02-17T02:04:14.114Z,39.42
2019-02-17T02:06:42.508Z,37.38
2019-02-17T02:09:10.970Z,34.78
2019-02-17T02:11:39.368Z,54.15
2019-02-17T02:14:07.821Z,42.45
2019-02-17T02:16:36.223Z,83.00
2019-02-17T02:19:04.743Z,61.70
2019-02-17T02:21:33.137Z,57.55
2019-02-17T02:24:01.524Z,43.45
2019-02-17T02:26:29.926Z,39.53
2019-02-17T02:28:58.304Z,39.48
2019-02-17T02:31:26.704Z,37.03
2019-02-17T02:33:55.080Z,41.37
2019-02-17T02:36:23.473Z,34.53
2019-02-17T02:38:51.859Z,34.85
2019-02-17T02:41:20.257Z,34.92
2019-02-17T02:43:48.640Z,37.93
2019-02-17T02:46:17.037Z,35.48
2019-02-17T02:48:45.424Z,33.70
2019-02-17T02:51:13.828Z,38.08
2019-02-17T02:53:42.201Z,41.13
2019-02-17T02:56:10.587Z,37.15
2019-02-17T02:58:38.972Z,37.40
2019-02-17T03:01:08.143Z,35.33
2019-02-17T03:03:36.534Z,38.30
2019-02-17T03:06:06.641Z,34.45
2019-02-17T03:08:35.027Z,34.48
2019-02-17T03:11:03.417Z,35.33
2019-02-17T03:13:31.868Z,33.80
2019-02-17T03:16:00.254Z,36.40
2019-02-17T03:18:28.652Z,34.90
2019-02-17T03:20:57.032Z,31.42
2019-02-17T03:23:25.416Z,35.60
2019-02-17T03:25:53.809Z,34.88
2019-02-17T03:28:22.204Z,36.48
2019-02-17T03:30:50.583Z,33.48
2019-02-17T03:33:18.969Z,34.98
2019-02-17T03:35:47.360Z,33.00
2019-02-17T03:38:15.752Z,35.83
2019-02-17T03:40:44.132Z,30.15
2019-02-17T03:43:12.598Z,36.60
2019-02-17T03:45:40.984Z,36.93
2019-02-17T03:48:09.375Z,37.10
2019-02-17T03:50:37.756Z,30.48
2019-02-17T03:53:06.161Z,37.10
2019-02-17T03:55:34.551Z,35.38
2019-02-17T03:58:02.942Z,33.18
2019-02-17T04:00:31.326Z,38.33
2019-02-17T04:02:59.720Z,35.05
2019-02-17T04:05:28.105Z,35.45
2019-02-17T04:07:56.497Z,33.85
2019-02-17T04:10:24.890Z,31.48
2019-02-17T04:12:53.276Z,34.00
2019-02-17T04:15:21.660Z,31.73
2019-02-17T04:17:50.056Z,36.60
2019-02-17T04:20:18.439Z,32.23
2019-02-17T04:22:46.816Z,33.60
2019-02-17T04:25:15.212Z,29.00
2019-02-17T04:27:43.598Z,31.52
2019-02-17T04:30:11.998Z,30.72
2019-02-17T04:32:40.381Z,26.57
2019-02-17T04:35:08.772Z,27.82
2019-02-17T04:37:37.152Z,31.57
2019-02-17T04:40:06.492Z,30.43
2019-02-17T04:42:34.874Z,29.42
2019-02-17T04:45:03.259Z,34.38
2019-02-17T04:47:31.636Z,34.18
2019-02-17T04:50:00.041Z,32.38
2019-02-17T04:52:28.420Z,30.65
2019-02-17T04:54:56.811Z,28.62
2019-02-17T04:57:25.193Z,32.03
2019-02-17T04:59:53.595Z,33.55
2019-02-17T05:02:21.975Z,30.00
2019-02-17T05:04:50.369Z,33.02
2019-02-17T05:07:18.769Z,30.82
2019-02-17T05:09:47.152Z,29.52
2019-02-17T05:12:15.546Z,29.10
2019-02-17T05:14:43.937Z,31.05
2019-02-17T05:17:12.322Z,27.37
2019-02-17T05:19:40.710Z,31.48
2019-02-17T05:22:09.094Z,33.20
2019-02-17T05:24:37.523Z,29.98
2019-02-17T05:27:05.908Z,31.45
2019-02-17T05:29:34.306Z,33.92
2019-02-17T05:32:02.683Z,30.43
2019-02-17T05:34:31.063Z,33.05
2019-02-17T05:36:59.454Z,29.25
2019-02-17T05:39:27.845Z,32.17
2019-02-17T05:41:56.237Z,33.45
2019-02-17T05:44:24.615Z,33.10
2019-02-17T05:46:53.019Z,32.90
2019-02-17T05:49:21.413Z,28.52
2019-02-17T05:51:49.810Z,27.40
2019-02-17T05:54:18.208Z,28.38
2019-02-17T05:56:46.584Z,29.20
2019-02-17T05:59:14.959Z,30.75
2019-02-17T06:01:43.351Z,32.60
2019-02-17T06:04:11.733Z,26.40
2019-02-17T06:06:40.143Z,33.00
2019-02-17T06:09:08.508Z,30.10
2019-02-17T06:11:36.900Z,34.80
2019-02-17T06:14:05.281Z,35.58
2019-02-17T06:16:33.695Z,29.70
2019-02-17T06:19:02.075Z,31.07
2019-02-17T06:21:30.753Z,35.00
2019-02-17T06:23:59.424Z,28.50
2019-02-17T06:26:27.817Z,32.42
2019-02-17T06:28:56.206Z,32.60
2019-02-17T06:31:24.598Z,33.73
2019-02-17T06:33:52.977Z,31.02
2019-02-17T06:36:21.369Z,32.13
2019-02-17T06:38:49.748Z,33.23
2019-02-17T06:41:18.141Z,34.03
2019-02-17T06:43:46.528Z,40.73
2019-02-17T06:46:16.573Z,30.92
2019-02-17T06:48:44.960Z,30.23
2019-02-17T06:51:13.355Z,27.15
2019-02-17T06:53:41.740Z,28.80
2019-02-17T06:56:20.772Z,32.08
2019-02-17T06:58:49.148Z,29.72
2019-02-17T07:01:24.426Z,32.03
2019-02-17T07:03:47.643Z,27.48
2019-02-17T07:06:20.747Z,33.67
2019-02-17T07:08:49.128Z,28.00
2019-02-17T07:11:17.621Z,34.10
2019-02-17T07:13:46.076Z,29.05
2019-02-17T07:16:14.468Z,28.95
2019-02-17T07:18:42.863Z,25.80
2019-02-17T07:21:11.253Z,29.48
2019-02-17T07:23:39.651Z,26.95
2019-02-17T07:26:08.036Z,29.32
2019-02-17T07:28:36.429Z,25.92
2019-02-17T07:31:05.480Z,25.57
2019-02-17T07:33:33.875Z,24.10
2019-02-17T07:36:02.272Z,23.90
2019-02-17T07:38:30.662Z,24.00
2019-02-17T07:40:59.095Z,23.87
2019-02-17T07:43:27.488Z,22.93
2019-02-17T07:45:55.869Z,23.50
2019-02-17T07:48:24.271Z,20.05
2019-02-17T07:50:52.647Z,22.75
2019-02-17T07:53:21.036Z,25.20
2019-02-17T07:55:49.427Z,22.82
2019-02-17T07:58:17.834Z,21.80
2019-02-17T08:00:46.216Z,23.47
2019-02-17T08:03:14.622Z,20.45
2019-02-17T08:05:42.996Z,23.32
2019-02-17T08:08:11.410Z,20.43
2019-02-17T08:10:39.779Z,21.50
2019-02-17T08:13:08.172Z,21.90
2019-02-17T08:15:36.568Z,20.77
2019-02-17T08:18:04.980Z,20.62
2019-02-17T08:20:33.361Z,21.95
2019-02-17T08:23:01.749Z,22.00
2019-02-17T08:25:30.169Z,22.52
2019-02-17T08:27:58.550Z,22.77
2019-02-17T08:30:26.954Z,22.82
2019-02-17T08:32:55.345Z,22.62
2019-02-17T08:35:23.736Z,20.10
2019-02-17T08:37:52.136Z,22.87
2019-02-17T08:40:20.532Z,20.17
2019-02-17T08:42:48.920Z,20.35
2019-02-17T08:45:17.317Z,20.23
2019-02-17T08:47:45.976Z,22.98
2019-02-17T08:50:14.380Z,22.25
2019-02-17T08:52:42.768Z,23.52
2019-02-17T08:55:11.177Z,25.48
2019-02-17T08:57:39.572Z,21.95
2019-02-17T09:00:13.266Z,26.68
2019-02-17T09:02:41.714Z,21.93
2019-02-17T09:05:10.183Z,21.33
2019-02-17T09:07:38.588Z,22.95
2019-02-17T09:10:10.056Z,19.98
2019-02-17T09:12:38.440Z,19.55
2019-02-17T09:15:10.096Z,21.20
2019-02-17T09:17:38.551Z,20.15
2019-02-17T09:20:09.041Z,24.80
2019-02-17T09:22:37.428Z,21.00
2019-02-17T09:25:10.965Z,19.10
2019-02-17T09:27:39.354Z,18.45
2019-02-17T09:30:16.309Z,18.32
2019-02-17T09:32:44.724Z,19.55
2019-02-17T09:35:13.223Z,18.00
2019-02-17T09:37:41.622Z,21.68
2019-02-17T09:40:11.864Z,25.37
2019-02-17T09:42:40.264Z,18.02
2019-02-17T09:45:15.862Z,17.37
2019-02-17T09:47:44.261Z,16.60
2019-02-17T09:50:13.791Z,20.43
2019-02-17T09:52:42.344Z,16.90
2019-02-17T09:55:11.275Z,17.60
2019-02-17T09:57:39.907Z,21.15
2019-02-17T10:00:11.120Z,19.07
2019-02-17T10:02:39.526Z,21.33
2019-02-17T10:05:10.527Z,15.80
2019-02-17T10:07:38.915Z,18.67
2019-02-17T10:10:10.384Z,17.25
2019-02-17T10:12:38.782Z,17.67
2019-02-17T10:15:10.586Z,22.80
2019-02-17T10:17:39.055Z,21.05
2019-02-17T10:20:10.182Z,20.95
2019-02-17T10:22:38.581Z,19.48
2019-02-17T10:25:08.013Z,17.32
2019-02-17T10:27:36.412Z,19.75
2019-02-17T10:30:08.006Z,21.20
2019-02-17T10:32:39.171Z,19.87
2019-02-17T10:35:06.759Z,18.90
2019-02-17T10:37:35.168Z,22.75
2019-02-17T10:40:05.004Z,19.02
2019-02-17T10:42:33.408Z,17.05
2019-02-17T10:45:01.793Z,20.88
2019-02-17T10:47:30.187Z,21.45
2019-02-17T10:49:58.572Z,18.45
2019-02-17T10:52:26.976Z,19.35
2019-02-17T10:54:55.361Z,17.92
2019-02-17T10:57:23.792Z,21.35
2019-02-17T10:59:52.172Z,17.40
2019-02-17T11:02:20.564Z,20.43
2019-02-17T11:04:48.968Z,19.67
2019-02-17T11:07:17.360Z,19.05
2019-02-17T11:09:45.767Z,18.52
2019-02-17T11:12:14.157Z,19.45
2019-02-17T11:14:42.555Z,20.45
2019-02-17T11:17:10.949Z,18.73
2019-02-17T11:19:39.357Z,18.42
2019-02-17T11:22:07.750Z,17.45
2019-02-17T11:24:36.173Z,20.35
2019-02-17T11:27:04.527Z,19.12
2019-02-17T11:29:32.930Z,17.17
2019-02-17T11:32:01.315Z,19.77
2019-02-17T11:34:29.704Z,18.65
2019-02-17T11:36:58.096Z,16.32
2019-02-17T11:39:26.505Z,19.87
2019-02-17T11:41:54.920Z,19.48
2019-02-17T11:44:23.322Z,19.62
2019-02-17T11:46:51.703Z,17.60
2019-02-17T11:49:20.114Z,18.12
2019-02-17T11:51:48.520Z,17.48
2019-02-17T11:54:16.921Z,17.45
2019-02-17T11:56:45.312Z,18.17
2019-02-17T11:59:13.715Z,20.52
2019-02-17T12:01:42.414Z,18.55
2019-02-17T12:04:10.820Z,19.92
2019-02-17T12:06:39.204Z,22.60
2019-02-17T12:09:08.253Z,22.00
2019-02-17T12:11:36.638Z,18.15
2019-02-17T12:14:05.027Z,21.68
2019-02-17T12:16:36.926Z,20.17
2019-02-17T12:19:03.535Z,19.45
2019-02-17T12:21:33.584Z,18.62
2019-02-17T12:24:13.209Z,20.75
2019-02-17T12:26:50.005Z,18.37
2019-02-17T12:29:20.100Z,20.88
2019-02-17T12:31:48.559Z,20.35
2019-02-17T12:34:16.947Z,19.55
2019-02-17T12:36:45.347Z,18.87
2019-02-17T12:39:15.170Z,20.95
2019-02-17T12:41:43.733Z,21.75
2019-02-17T12:44:12.112Z,20.05
2019-02-17T12:46:40.513Z,20.97
2019-02-17T12:49:13.207Z,26.80
2019-02-17T12:51:41.685Z,22.85
2019-02-17T12:54:10.148Z,20.20
2019-02-17T12:56:38.555Z,20.72
2019-02-17T12:59:07.017Z,19.77
2019-02-17T13:01:35.419Z,21.97
2019-02-17T13:04:04.021Z,24.12
2019-02-17T13:06:32.417Z,26.70
2019-02-17T13:09:01.245Z,20.17
2019-02-17T13:11:29.635Z,21.48
2019-02-17T13:13:58.027Z,19.27
2019-02-17T13:16:26.433Z,18.90
2019-02-17T13:18:54.824Z,19.73
2019-02-17T13:21:23.225Z,19.90
2019-02-17T13:23:51.620Z,15.90
2019-02-17T13:26:20.517Z,15.58
2019-02-17T13:28:48.972Z,18.35
2019-02-17T13:31:17.379Z,19.45
2019-02-17T13:33:45.931Z,15.28
2019-02-17T13:36:14.448Z,17.52
2019-02-17T13:38:42.846Z,14.63
2019-02-17T13:41:11.247Z,12.80
2019-02-17T13:43:39.660Z,12.20
2019-02-17T13:46:08.069Z,15.45
2019-02-17T13:48:36.458Z,13.00
2019-02-17T13:51:04.869Z,12.55
2019-02-17T13:53:33.261Z,15.23
2019-02-17T13:56:01.657Z,11.50
2019-02-17T13:58:30.107Z,15.75
2019-02-17T14:00:58.555Z,14.23
2019-02-17T14:03:26.944Z,11.65
2019-02-17T14:05:55.332Z,12.82
2019-02-17T14:08:23.725Z,12.23
2019-02-17T14:10:52.106Z,11.08
2019-02-17T14:13:20.510Z,11.10
2019-02-17T14:15:48.892Z,10.08
2019-02-17T14:18:17.298Z,12.00
2019-02-17T14:20:45.691Z,10.40
2019-02-17T14:23:14.075Z,14.53
2019-02-17T14:25:42.464Z,10.28
2019-02-17T14:28:10.865Z,12.18
2019-02-17T14:30:39.245Z,10.70
2019-02-17T14:33:07.708Z,11.25
2019-02-17T14:35:36.096Z,11.68
2019-02-17T14:38:04.490Z,9.88
2019-02-17T14:40:32.899Z,13.18
2019-02-17T14:43:01.278Z,13.38
2019-02-17T14:45:29.675Z,9.90
2019-02-17T14:47:58.065Z,10.50
2019-02-17T14:50:26.445Z,11.18
2019-02-17T14:52:54.908Z,10.23
2019-02-17T14:55:23.299Z,11.88
2019-02-17T14:57:51.766Z,8.95
2019-02-17T15:00:20.152Z,9.05
2019-02-17T15:02:48.550Z,12.33
2019-02-17T15:05:16.933Z,9.60
2019-02-17T15:07:45.380Z,11.65
2019-02-17T15:10:16.739Z,10.32
2019-02-17T15:12:45.126Z,10.18
2019-02-17T15:15:15.831Z,11.00
2019-02-17T15:17:44.213Z,7.75
2019-02-17T15:20:18.219Z,9.80
2019-02-17T15:22:46.635Z,9.73
2019-02-17T15:25:15.176Z,10.72
2019-02-17T15:27:43.567Z,11.22
2019-02-17T15:30:14.105Z,9.63
2019-02-17T15:35:10.108Z,10.23
2019-02-17T15:37:38.576Z,10.35
2019-02-17T15:40:14.553Z,9.23
2019-02-17T15:42:43.429Z,11.12
2019-02-17T15:45:13.132Z,9.10
2019-02-17T15:47:41.516Z,8.73
2019-02-17T15:50:11.640Z,10.93
2019-02-17T15:52:40.098Z,9.03
2019-02-17T15:55:10.540Z,8.25
2019-02-17T15:57:38.927Z,7.90
2019-02-17T16:00:17.517Z,10.35
2019-02-17T16:02:45.976Z,11.53
2019-02-17T16:05:14.741Z,11.35
2019-02-17T16:07:43.132Z,8.65
2019-02-17T16:10:15.646Z,9.40
2019-02-17T16:12:44.029Z,8.30
2019-02-17T16:15:18.250Z,7.55
2019-02-17T16:17:46.631Z,7.53
2019-02-17T16:20:15.083Z,12.20
2019-02-17T16:22:43.491Z,9.95
2019-02-17T16:25:12.149Z,9.85
2019-02-17T16:27:41.166Z,7.83
2019-02-17T16:30:14.967Z,7.75
2019-02-17T16:32:43.345Z,11.48
2019-02-17T16:35:11.801Z,6.25
2019-02-17T16:37:40.197Z,7.05
2019-02-17T16:40:13.749Z,5.97
2019-02-17T16:42:42.317Z,7.83
2019-02-17T16:45:14.662Z,9.98
2019-02-17T16:47:43.780Z,9.78
2019-02-17T16:50:17.668Z,7.87
2019-02-17T16:52:46.055Z,11.22
2019-02-17T16:55:14.444Z,9.75
2019-02-17T16:57:42.906Z,9.40
2019-02-17T17:00:23.147Z,8.35
2019-02-17T17:02:52.966Z,9.70
2019-02-17T17:05:22.408Z,13.60
2019-02-17T17:07:51.774Z,17.90
2019-02-17T17:10:20.306Z,17.20
2019-02-17T17:12:48.805Z,15.03
2019-02-17T17:15:17.487Z,16.82
2019-02-17T17:17:45.924Z,17.95
2019-02-17T17:20:16.787Z,16.30
2019-02-17T17:22:45.265Z,17.95
2019-02-17T17:25:14.388Z,12.70
2019-02-17T17:27:42.869Z,16.93
2019-02-17T17:30:13.767Z,17.98
2019-02-17T17:32:42.180Z,14.78
2019-02-17T17:35:11.522Z,14.15
2019-02-17T17:37:39.996Z,17.57
2019-02-17T17:40:18.398Z,22.95
2019-02-17T17:42:46.861Z,15.10
2019-02-17T17:45:20.643Z,16.23
2019-02-17T17:47:49.035Z,14.98
2019-02-17T17:50:17.501Z,19.37
2019-02-17T17:52:45.907Z,14.38
2019-02-17T17:55:14.360Z,17.70
2019-02-17T17:57:42.819Z,18.32
2019-02-17T18:00:27.672Z,19.62
2019-02-17T18:02:56.369Z,18.62
2019-02-17T18:05:24.747Z,14.10
2019-02-17T18:07:53.150Z,18.75
2019-02-17T18:10:21.540Z,16.10
2019-02-17T18:12:49.944Z,19.82
2019-02-17T18:15:19.580Z,17.40
2019-02-17T18:17:54.577Z,23.00
2019-02-17T18:20:18.085Z,19.75
2019-02-17T18:22:46.547Z,25.20
2019-02-17T18:25:15.279Z,20.65
2019-02-17T18:27:43.765Z,20.00
2019-02-17T18:30:16.601Z,24.72
2019-02-17T18:32:45.297Z,22.22
2019-02-17T18:35:19.757Z,22.55
2019-02-17T18:37:44.139Z,21.80
2019-02-17T18:40:14.267Z,19.77
2019-02-17T18:42:43.699Z,16.93
2019-02-17T18:45:13.532Z,23.25
2019-02-17T18:47:41.934Z,23.15
2019-02-17T18:50:12.359Z,24.27
2019-02-17T18:52:40.769Z,24.02
2019-02-17T18:55:11.484Z,25.37
2019-02-17T18:57:49.019Z,29.82
2019-02-17T19:00:15.644Z,24.15
2019-02-17T19:02:44.036Z,31.60
2019-02-17T19:05:12.572Z,26.15
2019-02-17T19:07:40.980Z,25.12
2019-02-17T19:10:15.861Z,22.55
2019-02-17T19:12:44.330Z,28.15
2019-02-17T19:15:14.832Z,25.97
2019-02-17T19:17:43.232Z,24.20
2019-02-17T19:20:14.532Z,22.52
2019-02-17T19:22:42.937Z,25.37
2019-02-17T19:25:11.488Z,27.20
2019-02-17T19:27:39.884Z,22.07
2019-02-17T19:30:11.584Z,26.97
2019-02-17T19:32:39.984Z,22.73
2019-02-17T19:35:11.278Z,23.32
2019-02-17T19:37:39.663Z,22.17
2019-02-17T19:40:10.396Z,24.82
2019-02-17T19:42:38.783Z,27.27
2019-02-17T19:45:10.193Z,27.35
2019-02-17T19:47:38.582Z,25.62
2019-02-17T19:50:10.009Z,28.52
2019-02-17T19:52:38.657Z,26.52
2019-02-17T19:55:08.788Z,35.03
2019-02-17T19:57:37.463Z,37.05
2019-02-17T20:00:17.001Z,35.70
2019-02-17T20:02:49.477Z,29.87
2019-02-17T20:05:19.508Z,29.30
2019-02-17T20:07:47.897Z,31.60
2019-02-17T20:10:16.287Z,34.33
2019-02-17T20:12:44.808Z,35.05
2019-02-17T20:15:13.209Z,35.60
2019-02-17T20:17:41.594Z,29.12
2019-02-17T20:20:10.433Z,27.67
2019-02-17T20:22:38.803Z,27.73
2019-02-17T20:25:07.754Z,22.98
2019-02-17T20:27:36.137Z,27.62
2019-02-17T20:30:07.740Z,25.88
2019-02-17T20:32:36.128Z,23.87
2019-02-17T20:35:06.472Z,20.62
2019-02-17T20:37:35.083Z,21.37
2019-02-17T20:40:05.416Z,27.60
2019-02-17T20:42:33.797Z,23.47
2019-02-17T20:45:02.200Z,23.95
2019-02-17T20:47:30.602Z,30.60
2019-02-17T20:49:58.980Z,32.33
2019-02-17T20:52:27.362Z,31.90
2019-02-17T20:54:55.827Z,29.52
2019-02-17T20:57:24.262Z,37.98
2019-02-17T20:59:52.680Z,33.85
2019-02-17T21:02:21.064Z,35.88
2019-02-17T21:04:49.740Z,31.57
2019-02-17T21:07:18.119Z,32.05
2019-02-17T21:09:46.601Z,33.55
2019-02-17T21:12:14.984Z,32.33
2019-02-17T21:14:43.373Z,30.90
2019-02-17T21:17:12.004Z,25.25
2019-02-17T21:19:40.382Z,31.65
2019-02-17T21:22:08.763Z,28.85
2019-02-17T21:24:37.215Z,29.20
2019-02-17T21:27:05.612Z,28.00
2019-02-17T21:29:33.996Z,27.02
2019-02-17T21:32:02.389Z,31.67
2019-02-17T21:34:30.774Z,30.97
2019-02-17T21:36:59.169Z,30.57
2019-02-17T21:39:27.557Z,28.62
2019-02-17T21:41:55.956Z,28.85
2019-02-17T21:44:24.333Z,31.20
2019-02-17T21:46:52.724Z,31.23
2019-02-17T21:49:21.106Z,27.52
2019-02-17T21:51:49.501Z,28.62
2019-02-17T21:54:17.963Z,26.70
2019-02-17T21:56:46.346Z,24.55
2019-02-17T21:59:14.738Z,30.65
2019-02-17T22:01:43.131Z,30.08
2019-02-17T22:04:11.512Z,28.55
2019-02-17T22:06:40.168Z,26.05
2019-02-17T22:09:08.821Z,28.20
2019-02-17T22:11:37.213Z,26.97
2019-02-17T22:14:05.596Z,30.48
2019-02-17T22:16:34.004Z,25.80
2019-02-17T22:19:02.383Z,28.42
2019-02-17T22:21:30.775Z,28.85
2019-02-17T22:23:59.160Z,26.05
2019-02-17T22:26:27.556Z,22.52
2019-02-17T22:28:55.945Z,34.13
2019-02-17T22:31:24.338Z,30.88
2019-02-17T22:33:52.729Z,33.53
2019-02-17T22:36:21.124Z,27.58
2019-02-17T22:38:49.586Z,26.37
2019-02-17T22:41:17.985Z,27.73
2019-02-17T22:43:46.379Z,25.32
2019-02-17T22:46:14.763Z,29.75
2019-02-17T22:48:43.152Z,24.67
2019-02-17T22:51:11.552Z,24.60
2019-02-17T22:53:43.620Z,24.70
2019-02-17T22:56:10.039Z,26.57
2019-02-17T22:58:38.513Z,27.67
2019-02-17T23:01:07.727Z,28.92
2019-02-17T23:03:36.206Z,23.47
2019-02-17T23:06:04.751Z,26.10
2019-02-17T23:08:33.149Z,25.37
2019-02-17T23:11:01.535Z,27.52
2019-02-17T23:13:29.993Z,28.52
2019-02-17T23:15:58.451Z,26.07
2019-02-17T23:18:26.842Z,26.05
2019-02-17T23:20:55.291Z,26.05
2019-02-17T23:23:23.693Z,28.90
2019-02-17T23:25:52.071Z,30.40
2019-02-17T23:28:20.533Z,29.07
2019-02-17T23:30:48.908Z,27.55
2019-02-17T23:33:17.304Z,27.22
2019-02-17T23:35:45.833Z,26.85
2019-02-17T23:38:14.230Z,28.02
2019-02-17T23:40:42.608Z,26.93
2019-02-17T23:43:11.000Z,28.75
2019-02-17T23:45:39.413Z,32.20
2019-02-17T23:48:08.061Z,33.88
2019-02-17T23:50:36.440Z,31.25
2019-02-17T23:53:04.830Z,27.65
2019-02-17T23:55:33.207Z,27.30
2019-02-17T23:58:01.595Z,27.37
